Tonsnes — LLAD — position and weather

sailwx.info

Track history (hours):
 
Tides and Currents Weather Stations Pressure Air Temp Water Temp Dewpoint Dewpoint Depression Visibility Wind Speed Wind Dir Waves Ship Positions

Tonsnes

Last reported at 2018-Jul-21 17:00 UTC. Time now 2018-Jul-21 17:15 UTC.
Position N 71°09' E 023°19'.

Length 50 m.

Type: Fishing. MMSI: 259666000.

Date/timePositionNaut miles runAvg speedWind from/ knotsBaromVisibWave heightAir tempDewpointWater temp
2018-Jul-21 17:00N 71°09' E 023°19'0 0.3
2018-Jul-21 16:29N 71°09' E 023°19'2 3.7
2018-Jul-21 15:59N 71°07' E 023°15'2 3.8
2018-Jul-21 15:30N 71°09' E 023°18'1 2.1
2018-Jul-21 15:00N 71°09' E 023°21'2 4.0
2018-Jul-21 14:29N 71°07' E 023°21'3 3.4
2018-Jul-21 13:30N 71°04' E 023°14'2 3.7
2018-Jul-21 13:00N 71°06' E 023°14'2 4.0
2018-Jul-21 12:30N 71°08' E 023°17'2 3.4
2018-Jul-21 11:59N 71°08' E 023°22'2 3.0
2018-Jul-21 11:29N 71°10' E 023°21'1 1.5
2018-Jul-21 11:00N 71°09' E 023°19'2 3.9
2018-Jul-21 10:28N 71°08' E 023°16'2 3.9
2018-Jul-21 10:00N 71°06' E 023°13'2 3.4
2018-Jul-21 09:29N 71°04' E 023°14'2 3.7
2018-Jul-21 09:00N 71°06' E 023°18'1 1.9
2018-Jul-21 08:30N 71°05' E 023°17'2 3.3
2018-Jul-21 08:00N 71°05' E 023°12'2 3.6
2018-Jul-21 07:30N 71°07' E 023°14'2 3.6
2018-Jul-21 07:00N 71°07' E 023°19'1 1.5
2018-Jul-21 06:30N 71°08' E 023°17'2 4.3
2018-Jul-21 06:00N 71°06' E 023°13'2 4.2
2018-Jul-21 05:30N 71°04' E 023°15'2 4.0
2018-Jul-21 05:00N 71°05' E 023°20'2 3.0
2018-Jul-21 04:30N 71°06' E 023°24'2 3.5
2018-Jul-21 04:00N 71°05' E 023°19'1 2.9
2018-Jul-21 03:30N 71°06' E 023°23'2 3.3
2018-Jul-21 03:00N 71°07' E 023°27'2 3.1
2018-Jul-21 02:29N 71°08' E 023°31'1 2.9
2018-Jul-21 01:59N 71°09' E 023°35'1 3.0
2018-Jul-21 01:30N 71°09' E 023°39'2 3.3
2018-Jul-21 00:59N 71°10' E 023°43'1 2.0
2018-Jul-21 00:30N 71°10' E 023°40'1 1.7
2018-Jul-21 00:00N 71°10' E 023°38'2 3.8
2018-Jul-20 23:29N 71°10' E 023°44'2 4.0
2018-Jul-20 23:00N 71°10' E 023°38'1 1.8
2018-Jul-20 22:29N 71°09' E 023°39'2 3.6
2018-Jul-20 21:59N 71°10' E 023°43'1 2.4
2018-Jul-20 21:30N 71°09' E 023°41'2 4.1
2018-Jul-20 21:00N 71°09' E 023°35'2 3.7
2018-Jul-20 20:30N 71°10' E 023°32'2 4.1
2018-Jul-20 19:59N 71°10' E 023°25'2 4.2
2018-Jul-20 19:30N 71°09' E 023°20'2 4.1
2018-Jul-20 19:00N 71°07' E 023°15'2 4.0
2018-Jul-20 18:30N 71°06' E 023°13'2 4.2
2018-Jul-20 18:00N 71°04' E 023°11'1 2.6
2018-Jul-20 17:30N 71°03' E 023°07'2 3.0
2018-Jul-20 16:59N 71°04' E 023°11'2 3.4
2018-Jul-20 16:30N 71°05' E 023°13'2 3.9
2018-Jul-20 16:00N 71°07' E 023°15'2 3.8
2018-Jul-20 15:29N 71°08' E 023°20'0 0.5
2018-Jul-20 15:00N 71°09' E 023°19'2 3.9
2018-Jul-20 14:30N 71°07' E 023°16'2 3.9
2018-Jul-20 14:00N 71°05' E 023°13'2 3.2
2018-Jul-20 13:30N 71°05' E 023°17'2 4.2
2018-Jul-20 12:59N 71°07' E 023°18'2 4.1
2018-Jul-20 12:30N 71°09' E 023°20'2 3.1
2018-Jul-20 12:00N 71°08' E 023°16'2 3.9
2018-Jul-20 11:30N 71°06' E 023°13'2 3.7
2018-Jul-20 10:59N 71°04' E 023°11'4 7.5
2018-Jul-20 10:30N 71°03' E 023°01'3 6.7
2018-Jul-20 10:00N 71°02' E 022°51'2 3.8
2018-Jul-20 09:29N 71°00' E 022°47'2 4.1
2018-Jul-20 09:00N 71°01' E 022°41'2 4.1
2018-Jul-20 08:28N 71°00' E 022°34'2 4.3
2018-Jul-20 08:00N 70°59' E 022°29'2 4.1
2018-Jul-20 07:30N 70°58' E 022°23'2 4.1
2018-Jul-20 07:00N 70°57' E 022°18'2 4.5
2018-Jul-20 06:30N 70°56' E 022°13'2 3.6
2018-Jul-20 06:00N 70°54' E 022°12'2 4.4
2018-Jul-20 05:30N 70°52' E 022°10'2 3.2
2018-Jul-20 05:00N 70°50' E 022°09'2 3.8
2018-Jul-20 04:30N 70°52' E 022°10'2 3.6
2018-Jul-20 04:00N 70°54' E 022°12'2 4.5
2018-Jul-20 03:30N 70°56' E 022°09'0 0.5
2018-Jul-20 03:00N 70°56' E 022°08'2 3.2
2018-Jul-20 02:30N 70°54' E 022°11'2 3.0
2018-Jul-20 02:00N 70°53' E 022°14'1 2.0
2018-Jul-20 01:30N 70°54' E 022°15'2 3.6
2018-Jul-20 01:00N 70°53' E 022°11'2 4.2
2018-Jul-20 00:30N 70°51' E 022°08'2 3.9
2018-Jul-20 00:00N 70°49' E 022°05'4 8.6
2018-Jul-19 23:30N 70°48' E 021°53'612.4
2018-Jul-19 23:00N 70°43' E 021°39'612.4
2018-Jul-19 22:30N 70°39' E 021°26'612.4
2018-Jul-19 22:00N 70°34' E 021°14'612.3
2018-Jul-19 21:30N 70°30' E 021°02'612.2
2018-Jul-19 21:00N 70°25' E 020°50'612.0
2018-Jul-19 20:29N 70°20' E 020°39'612.3
2018-Jul-19 19:59N 70°15' E 020°29'612.9
2018-Jul-19 19:30N 70°10' E 020°19'612.5
2018-Jul-19 19:00N 70°04' E 020°11'612.3
2018-Jul-19 18:30N 69°59' E 020°01'612.2
2018-Jul-19 18:00N 69°54' E 019°52'612.1
2018-Jul-19 17:30N 69°50' E 019°39'612.0
2018-Jul-19 17:00N 69°48' E 019°22'613.0
2018-Jul-19 16:30N 69°45' E 019°05'510.3
2018-Jul-19 15:59N 69°40' E 018°59'0 0.4
2018-Jul-19 15:30N 69°40' E 018°59'0 0.0
2018-Jul-19 15:00N 69°40' E 018°59'0 0.0
2018-Jul-19 14:29N 69°40' E 018°59'0 0.0
2018-Jul-19 13:30N 69°40' E 018°59'0 0.0
2018-Jul-19 12:59N 69°40' E 018°59'0 0.0
2018-Jul-19 12:30N 69°40' E 018°59'0 0.0
2018-Jul-19 11:59N 69°40' E 018°59'0 0.0
2018-Jul-19 11:30N 69°40' E 018°59'0 0.0
2018-Jul-19 11:00N 69°40' E 018°59'0 0.0
2018-Jul-19 10:30N 69°40' E 018°59'0 0.0
2018-Jul-19 09:59N 69°40' E 018°59'0 0.0
2018-Jul-19 09:29N 69°40' E 018°59'0 0.0
2018-Jul-19 08:59N 69°40' E 018°59'0 0.0
2018-Jul-19 08:28N 69°40' E 018°59'0 0.0
2018-Jul-19 08:00N 69°40' E 018°59'0 0.0
2018-Jul-19 07:30N 69°40' E 018°59'0 0.0
2018-Jul-19 07:00N 69°40' E 018°59'0 0.0
2018-Jul-19 06:30N 69°40' E 018°59'0 0.0
2018-Jul-19 06:00N 69°40' E 018°59'0 0.0
2018-Jul-19 05:30N 69°40' E 018°59'0 0.0
2018-Jul-19 05:00N 69°40' E 018°59'0 0.0
2018-Jul-19 04:30N 69°40' E 018°59'0 0.0
2018-Jul-19 04:00N 69°40' E 018°59'0 0.0
2018-Jul-19 03:30N 69°40' E 018°59'0 0.0
2018-Jul-19 03:00N 69°40' E 018°59'0 0.0
2018-Jul-19 02:30N 69°40' E 018°59'0 0.0
2018-Jul-19 02:00N 69°40' E 018°59'0 0.0
2018-Jul-19 01:30N 69°40' E 018°59'0 0.0
2018-Jul-19 01:00N 69°40' E 018°59'0 0.0
2018-Jul-19 00:30N 69°40' E 018°59'0 0.0
2018-Jul-19 00:00N 69°40' E 018°59'0 0.0
2018-Jul-18 23:30N 69°40' E 018°59'0 0.0
2018-Jul-18 22:59N 69°40' E 018°59'0 0.0
2018-Jul-18 22:30N 69°40' E 018°59'1 1.7
2018-Jul-18 22:00N 69°40' E 018°59'0 0.5
2018-Jul-18 21:29N 69°39' E 018°58'0 0.0
2018-Jul-18 21:00N 69°39' E 018°58'0 0.0
2018-Jul-18 20:30N 69°39' E 018°58'0 0.0
2018-Jul-18 20:00N 69°39' E 018°58'0 0.0
2018-Jul-18 19:30N 69°39' E 018°58'1 2.4
2018-Jul-18 19:00N 69°38' E 018°57'510.9
2018-Jul-18 18:30N 69°34' E 018°48'510.2
2018-Jul-18 18:00N 69°32' E 018°34'611.8
2018-Jul-18 17:30N 69°31' E 018°18'611.0
2018-Jul-18 17:00N 69°32' E 018°02'510.8
2018-Jul-18 16:29N 69°36' E 017°52'611.3
2018-Jul-18 16:00N 69°39' E 017°38'510.5
2018-Jul-18 15:30N 69°35' E 017°27'611.2
2018-Jul-18 15:00N 69°30' E 017°30'0 0.8
2018-Jul-18 14:30N 69°30' E 017°29'0 0.0
2018-Jul-18 13:30N 69°30' E 017°29'0 0.0
2018-Jul-18 13:00N 69°30' E 017°29'0 0.0
2018-Jul-18 12:30N 69°30' E 017°29'0 0.0
2018-Jul-18 12:00N 69°30' E 017°29'0 0.0
2018-Jul-18 11:30N 69°30' E 017°29'0 0.0
2018-Jul-18 10:30N 69°30' E 017°29'0 0.0
2018-Jul-18 10:00N 69°30' E 017°29'0 0.0
2018-Jul-18 09:30N 69°30' E 017°29'0 0.0
2018-Jul-18 08:59N 69°30' E 017°29'0 0.0
2018-Jul-18 08:30N 69°30' E 017°29'0 0.0
2018-Jul-18 08:00N 69°30' E 017°29'0 0.0
2018-Jul-18 07:30N 69°30' E 017°29'0 0.0
2018-Jul-18 06:59N 69°30' E 017°29'0 0.0
2018-Jul-18 06:30N 69°30' E 017°29'0 0.0
2018-Jul-18 06:00N 69°30' E 017°29'0 0.0
2018-Jul-18 05:29N 69°30' E 017°29'0 0.0
2018-Jul-18 05:00N 69°30' E 017°29'0 0.0
2018-Jul-18 04:30N 69°30' E 017°29'0 0.0
2018-Jul-18 03:59N 69°30' E 017°29'0 0.0
2018-Jul-18 03:30N 69°30' E 017°29'0 0.0
2018-Jul-18 03:00N 69°30' E 017°29'0 0.0
2018-Jul-18 02:30N 69°30' E 017°29'0 0.0
2018-Jul-18 02:00N 69°30' E 017°29'0 0.8
2018-Jul-18 01:28N 69°30' E 017°30'3 5.3
2018-Jul-18 01:00N 69°32' E 017°27'4 7.3
2018-Jul-18 00:30N 69°35' E 017°20'1 2.1
2018-Jul-18 00:00N 69°36' E 017°22'1 2.6
2018-Jul-17 23:30N 69°37' E 017°24'1 2.5
2018-Jul-17 23:00N 69°38' E 017°26'1 2.0
2018-Jul-17 22:29N 69°39' E 017°27'2 3.4
2018-Jul-17 21:59N 69°40' E 017°30'612.0
2018-Jul-17 21:30N 69°45' E 017°40'612.4
2018-Jul-17 21:00N 69°50' E 017°49'611.9
2018-Jul-17 20:30N 69°55' E 017°56'612.4
2018-Jul-17 20:00N 70°01' E 018°06'612.7
2018-Jul-17 19:30N 70°06' E 018°16'612.5
2018-Jul-17 19:00N 70°11' E 018°27'611.8
2018-Jul-17 18:30N 70°16' E 018°38'611.2
2018-Jul-17 18:00N 70°18' E 018°53'611.9
2018-Jul-17 17:30N 70°21' E 019°08'611.3
2018-Jul-17 17:00N 70°24' E 019°24'510.8
2018-Jul-17 16:30N 70°26' E 019°38'610.8
2018-Jul-17 15:57N 70°29' E 019°53'510.9
2018-Jul-17 15:29N 70°32' E 020°06'510.7
2018-Jul-17 15:00N 70°34' E 020°20'510.5
2018-Jul-17 14:29N 70°37' E 020°33'510.8
2018-Jul-17 13:59N 70°39' E 020°48'612.0
2018-Jul-17 13:30N 70°41' E 021°05'612.6
2018-Jul-17 13:00N 70°42' E 021°24'612.7
2018-Jul-17 12:30N 70°45' E 021°41'612.7
2018-Jul-17 12:00N 70°48' E 021°58'612.5
2018-Jul-17 11:30N 70°51' E 022°15'612.9
2018-Jul-17 11:00N 70°54' E 022°33'713.7
2018-Jul-17 10:30N 70°56' E 022°52'713.3
2018-Jul-17 10:00N 70°59' E 023°11'612.7
2018-Jul-17 09:30N 71°02' E 023°28'612.5
2018-Jul-17 09:00N 71°05' E 023°45'612.5
2018-Jul-17 08:30N 71°08' E 024°03'611.7
2018-Jul-17 08:00N 71°08' E 024°21'611.9
2018-Jul-17 07:29N 71°09' E 024°39'4 8.6
2018-Jul-17 07:01N 71°10' E 024°52'610.9
2018-Jul-17 06:28N 71°11' E 025°10'510.9
2018-Jul-17 06:00N 71°11' E 025°26'510.2
2018-Jul-17 05:30N 71°12' E 025°41'510.4
2018-Jul-17 05:01N 71°12' E 025°57'611.6
2018-Jul-17 04:30N 71°11' E 026°15'612.1
2018-Jul-17 04:00N 71°10' E 026°34'611.9
2018-Jul-17 03:30N 71°10' E 026°52'611.7
2018-Jul-17 03:00N 71°10' E 027°11'611.5
2018-Jul-17 02:30N 71°09' E 027°28'611.8
2018-Jul-17 02:00N 71°09' E 027°47'612.0
2018-Jul-17 01:30N 71°08' E 028°05'611.8
2018-Jul-17 01:00N 71°06' E 028°22'612.3
2018-Jul-17 00:29N 71°02' E 028°39'1110.9
2018-Jul-16 23:29N 70°57' E 029°07'612.5
2018-Jul-16 23:00N 70°54' E 029°24'612.3
2018-Jul-16 22:29N 70°50' E 029°40'611.9
2018-Jul-16 22:00N 70°47' E 029°55'611.3
2018-Jul-16 21:30N 70°44' E 030°09'5 9.1
2018-Jul-16 21:00N 70°42' E 030°21'612.2
2018-Jul-16 20:30N 70°39' E 030°37'612.0
2018-Jul-16 20:01N 70°36' E 030°52'611.6
2018-Jul-16 19:30N 70°32' E 031°07'611.3
2018-Jul-16 19:00N 70°30' E 031°21'510.4
2018-Jul-16 18:30N 70°28' E 031°36'4 0.1
2018-Jul-14 22:52N 70°26' E 031°45'412.4
2018-Jul-14 22:30N 70°27' E 031°33'612.2
2018-Jul-14 22:00N 70°30' E 031°16'1 2.6
2018-Jul-14 21:30N 70°31' E 031°14'2 3.9
2018-Jul-14 21:00N 70°32' E 031°10'2 4.0
2018-Jul-14 20:30N 70°34' E 031°08'2 3.8
2018-Jul-14 20:00N 70°34' E 031°02'2 3.9
2018-Jul-14 19:30N 70°33' E 031°07'2 4.0
2018-Jul-14 19:00N 70°32' E 031°12'2 3.8
2018-Jul-14 18:30N 70°31' E 031°15'2 3.7
2018-Jul-14 18:00N 70°29' E 031°19'1 2.8
2018-Jul-14 17:30N 70°30' E 031°16'2 3.6
2018-Jul-14 17:00N 70°31' E 031°12'2 4.6
2018-Jul-14 16:29N 70°33' E 031°06'2 4.7
2018-Jul-14 16:00N 70°34' E 031°01'2 4.5
2018-Jul-14 15:30N 70°36' E 030°57'2 4.2
2018-Jul-14 15:00N 70°38' E 030°53'2 4.4
2018-Jul-14 14:30N 70°39' E 030°47'4 4.4
2018-Jul-14 13:30N 70°41' E 030°37'2 4.7
2018-Jul-14 13:00N 70°43' E 030°32'3 5.1
2018-Jul-14 12:30N 70°41' E 030°37'3 6.5
2018-Jul-14 12:00N 70°39' E 030°45'2 4.1
2018-Jul-14 11:30N 70°38' E 030°50'2 4.2
2018-Jul-14 11:00N 70°37' E 030°55'2 4.3
2018-Jul-14 10:29N 70°36' E 031°02'2 4.2
2018-Jul-14 10:00N 70°35' E 031°07'2 4.1
2018-Jul-14 09:30N 70°33' E 031°09'2 4.1
2018-Jul-14 09:00N 70°31' E 031°12'3 4.7
2018-Jul-14 08:29N 70°30' E 031°17'2 3.6
2018-Jul-14 08:00N 70°31' E 031°13'2 4.3
2018-Jul-14 07:30N 70°32' E 031°09'1 1.3
2018-Jul-14 06:59N 70°33' E 031°07'2 3.1
2018-Jul-14 06:30N 70°31' E 031°10'2 4.4
2018-Jul-14 06:00N 70°30' E 031°15'1 2.8
2018-Jul-14 05:30N 70°29' E 031°18'0 0.6
2018-Jul-14 05:00N 70°29' E 031°18'1 1.8
2018-Jul-14 04:30N 70°29' E 031°20'0 0.5
2018-Jul-14 04:00N 70°29' E 031°19'0 1.0
2018-Jul-14 03:30N 70°29' E 031°18'0 0.9
2018-Jul-14 03:00N 70°29' E 031°17'0 0.7
2018-Jul-14 02:30N 70°30' E 031°17'0 0.6
2018-Jul-14 02:00N 70°30' E 031°16'1 1.1
2018-Jul-14 01:30N 70°30' E 031°17'1 1.6
2018-Jul-14 01:00N 70°29' E 031°19'1 2.8
2018-Jul-14 00:30N 70°30' E 031°16'2 3.9
2018-Jul-14 00:00N 70°32' E 031°12'2 3.9
2018-Jul-13 23:30N 70°33' E 031°08'2 3.8
2018-Jul-13 23:00N 70°34' E 031°04'2 3.6
2018-Jul-13 22:30N 70°35' E 030°60'2 3.7
2018-Jul-13 22:00N 70°37' E 030°56'2 3.0
2018-Jul-13 21:29N 70°37' E 030°51'2 4.1
2018-Jul-13 21:00N 70°36' E 030°56'2 4.2
2018-Jul-13 20:30N 70°35' E 031°00'2 4.4
2018-Jul-13 19:59N 70°33' E 031°05'2 4.2
2018-Jul-13 19:31N 70°32' E 031°10'2 4.1
2018-Jul-13 19:00N 70°30' E 031°14'1 2.9
2018-Jul-13 18:30N 70°29' E 031°18'2 3.7
2018-Jul-13 17:59N 70°31' E 031°14'2 4.0
2018-Jul-13 17:30N 70°32' E 031°10'2 4.5
2018-Jul-13 17:00N 70°34' E 031°05'2 4.4
2018-Jul-13 16:30N 70°35' E 030°60'2 4.4
2018-Jul-13 16:00N 70°36' E 030°55'2 4.5
2018-Jul-13 15:30N 70°38' E 030°50'2 4.5
2018-Jul-13 15:00N 70°39' E 030°44'4 4.3
2018-Jul-13 14:00N 70°42' E 030°35'3 5.1
2018-Jul-13 13:30N 70°44' E 030°28'611.5
2018-Jul-13 13:01N 70°44' E 030°11'510.9
2018-Jul-13 12:31N 70°42' E 029°55'610.8
2018-Jul-13 11:59N 70°38' E 029°45'0 0.8
2018-Jul-13 11:30N 70°38' E 029°43'0 0.0
2018-Jul-13 11:00N 70°38' E 029°43'0 0.0
2018-Jul-13 10:30N 70°38' E 029°43'0 0.0
2018-Jul-13 10:00N 70°38' E 029°43'0 0.0
2018-Jul-13 09:30N 70°38' E 029°43'0 0.0
2018-Jul-13 08:59N 70°38' E 029°43'0 0.0
2018-Jul-13 08:30N 70°38' E 029°43'0 0.0
2018-Jul-13 08:00N 70°38' E 029°43'0 0.0
2018-Jul-13 07:30N 70°38' E 029°43'0 0.0
2018-Jul-13 06:58N 70°38' E 029°43'0 0.0
2018-Jul-13 06:30N 70°38' E 029°43'0 0.0
2018-Jul-13 06:00N 70°38' E 029°43'0 0.0
2018-Jul-13 05:29N 70°38' E 029°43'0 0.0
2018-Jul-13 05:00N 70°38' E 029°43'0 0.0
2018-Jul-13 04:30N 70°38' E 029°43'0 0.0
2018-Jul-13 03:59N 70°38' E 029°43'0 0.0
2018-Jul-13 03:30N 70°38' E 029°43'0 0.0
2018-Jul-13 03:01N 70°38' E 029°43'1 2.4
2018-Jul-13 02:30N 70°38' E 029°46'2 4.8
2018-Jul-13 02:00N 70°40' E 029°51'3 4.9
2018-Jul-13 01:29N 70°43' E 029°51'4 7.6
2018-Jul-13 01:00N 70°46' E 029°47'5 9.3
2018-Jul-13 00:30N 70°50' E 029°37'3 6.2
2018-Jul-13 00:00N 70°52' E 029°31'4 8.1
2018-Jul-12 23:30N 70°55' E 029°22'5 9.3
2018-Jul-12 22:59N 70°58' E 029°12'4 8.3
2018-Jul-12 22:30N 71°02' E 029°05'4 7.5
2018-Jul-12 22:00N 71°04' E 028°57'3 7.2
2018-Jul-12 21:31N 71°07' E 028°50'2 3.1
2018-Jul-12 21:00N 71°07' E 028°55'2 4.3
2018-Jul-12 20:30N 71°06' E 029°01'1 2.4
2018-Jul-12 20:00N 71°07' E 029°02'2 3.7
2018-Jul-12 19:30N 71°08' E 028°57'2 3.7
2018-Jul-12 19:00N 71°08' E 028°51'2 3.7
2018-Jul-12 18:30N 71°08' E 028°46'2 3.7
2018-Jul-12 18:00N 71°08' E 028°40'2 3.6
2018-Jul-12 17:30N 71°09' E 028°35'2 4.3
2018-Jul-12 17:00N 71°10' E 028°30'2 3.2
2018-Jul-12 16:30N 71°09' E 028°34'2 3.6
2018-Jul-12 15:59N 71°08' E 028°39'2 4.1
2018-Jul-12 15:30N 71°08' E 028°45'2 3.9
2018-Jul-12 15:00N 71°07' E 028°51'2 3.8
2018-Jul-12 14:30N 71°07' E 028°56'2 3.6
2018-Jul-12 14:00N 71°07' E 029°02'1 2.1
2018-Jul-12 13:31N 71°06' E 029°03'2 4.4
2018-Jul-12 13:00N 71°07' E 028°56'2 4.4
2018-Jul-12 12:30N 71°07' E 028°50'2 4.2
2018-Jul-12 12:00N 71°08' E 028°44'2 4.2
2018-Jul-12 11:29N 71°09' E 028°37'2 4.4
2018-Jul-12 11:00N 71°09' E 028°31'4 7.2
2018-Jul-12 10:30N 71°09' E 028°42'2 3.5
2018-Jul-12 10:00N 71°08' E 028°46'2 4.1
2018-Jul-12 09:30N 71°07' E 028°52'2 4.2
2018-Jul-12 09:00N 71°07' E 028°59'1 2.4
2018-Jul-12 08:30N 71°06' E 029°01'2 3.5
2018-Jul-12 08:00N 71°06' E 028°56'2 3.4
2018-Jul-12 07:30N 71°05' E 028°51'2 3.3
2018-Jul-12 07:00N 71°05' E 028°46'2 3.3
2018-Jul-12 06:30N 71°07' E 028°42'2 3.3
2018-Jul-12 06:00N 71°08' E 028°40'2 4.1
2018-Jul-12 05:30N 71°08' E 028°46'2 4.1
2018-Jul-12 05:00N 71°08' E 028°52'2 4.3
2018-Jul-12 04:30N 71°07' E 028°58'2 4.0
2018-Jul-12 04:00N 71°06' E 029°04'2 4.1
2018-Jul-12 03:30N 71°04' E 029°09'1 3.0
2018-Jul-12 03:00N 71°04' E 029°12'2 4.0
2018-Jul-12 02:29N 71°05' E 029°07'1 2.9
2018-Jul-12 02:01N 71°06' E 029°09'2 3.9
2018-Jul-12 01:29N 71°06' E 029°03'2 4.2
2018-Jul-12 01:00N 71°07' E 028°57'2 4.4
2018-Jul-12 00:29N 71°08' E 028°51'2 3.9
2018-Jul-12 00:00N 71°08' E 028°45'2 3.4
2018-Jul-11 23:30N 71°06' E 028°47'2 3.8
2018-Jul-11 23:00N 71°06' E 028°52'2 3.7
2018-Jul-11 22:30N 71°06' E 028°58'1 2.9
2018-Jul-11 22:00N 71°07' E 028°57'2 4.2
2018-Jul-11 21:29N 71°08' E 028°51'2 4.0
2018-Jul-11 21:00N 71°08' E 028°45'2 4.1
2018-Jul-11 20:30N 71°09' E 028°38'1 1.2
2018-Jul-11 20:00N 71°09' E 028°37'0 0.6
2018-Jul-11 19:30N 71°09' E 028°37'4 7.3
2018-Jul-11 19:00N 71°09' E 028°48'2 3.4
2018-Jul-11 18:30N 71°08' E 028°53'2 4.4
2018-Jul-11 18:00N 71°06' E 028°56'2 3.9
2018-Jul-11 17:30N 71°05' E 029°02'  
Track history (hours):
 
Tides and Currents Weather Stations Pressure Air Temp Water Temp Dewpoint Dewpoint Depression Visibility Wind Speed Wind Dir Waves Ship Positions

Tonsnes

Last reported at 2018-Jul-21 17:00 UTC. Time now 2018-Jul-21 17:15 UTC.
Position N 71°09' E 023°19'.

Length 50 m.

Type: Fishing. MMSI: 259666000.

Date/timePositionNaut miles runAvg speedWind from/ knotsBaromVisibWave heightAir tempDewpointWater temp
2018-Jul-21 17:00N 71°09' E 023°19'0 0.3
2018-Jul-21 16:29N 71°09' E 023°19'2 3.7
2018-Jul-21 15:59N 71°07' E 023°15'2 3.8
2018-Jul-21 15:30N 71°09' E 023°18'1 2.1
2018-Jul-21 15:00N 71°09' E 023°21'2 4.0
2018-Jul-21 14:29N 71°07' E 023°21'3 3.4
2018-Jul-21 13:30N 71°04' E 023°14'2 3.7
2018-Jul-21 13:00N 71°06' E 023°14'2 4.0
2018-Jul-21 12:30N 71°08' E 023°17'2 3.4
2018-Jul-21 11:59N 71°08' E 023°22'2 3.0
2018-Jul-21 11:29N 71°10' E 023°21'1 1.5
2018-Jul-21 11:00N 71°09' E 023°19'2 3.9
2018-Jul-21 10:28N 71°08' E 023°16'2 3.9
2018-Jul-21 10:00N 71°06' E 023°13'2 3.4
2018-Jul-21 09:29N 71°04' E 023°14'2 3.7
2018-Jul-21 09:00N 71°06' E 023°18'1 1.9
2018-Jul-21 08:30N 71°05' E 023°17'2 3.3
2018-Jul-21 08:00N 71°05' E 023°12'2 3.6
2018-Jul-21 07:30N 71°07' E 023°14'2 3.6
2018-Jul-21 07:00N 71°07' E 023°19'1 1.5
2018-Jul-21 06:30N 71°08' E 023°17'2 4.3
2018-Jul-21 06:00N 71°06' E 023°13'2 4.2
2018-Jul-21 05:30N 71°04' E 023°15'2 4.0
2018-Jul-21 05:00N 71°05' E 023°20'2 3.0
2018-Jul-21 04:30N 71°06' E 023°24'2 3.5
2018-Jul-21 04:00N 71°05' E 023°19'1 2.9
2018-Jul-21 03:30N 71°06' E 023°23'2 3.3
2018-Jul-21 03:00N 71°07' E 023°27'2 3.1
2018-Jul-21 02:29N 71°08' E 023°31'1 2.9
2018-Jul-21 01:59N 71°09' E 023°35'1 3.0
2018-Jul-21 01:30N 71°09' E 023°39'2 3.3
2018-Jul-21 00:59N 71°10' E 023°43'1 2.0
2018-Jul-21 00:30N 71°10' E 023°40'1 1.7
2018-Jul-21 00:00N 71°10' E 023°38'2 3.8
2018-Jul-20 23:29N 71°10' E 023°44'2 4.0
2018-Jul-20 23:00N 71°10' E 023°38'1 1.8
2018-Jul-20 22:29N 71°09' E 023°39'2 3.6
2018-Jul-20 21:59N 71°10' E 023°43'1 2.4
2018-Jul-20 21:30N 71°09' E 023°41'2 4.1
2018-Jul-20 21:00N 71°09' E 023°35'2 3.7
2018-Jul-20 20:30N 71°10' E 023°32'2 4.1
2018-Jul-20 19:59N 71°10' E 023°25'2 4.2
2018-Jul-20 19:30N 71°09' E 023°20'2 4.1
2018-Jul-20 19:00N 71°07' E 023°15'2 4.0
2018-Jul-20 18:30N 71°06' E 023°13'2 4.2
2018-Jul-20 18:00N 71°04' E 023°11'1 2.6
2018-Jul-20 17:30N 71°03' E 023°07'2 3.0
2018-Jul-20 16:59N 71°04' E 023°11'2 3.4
2018-Jul-20 16:30N 71°05' E 023°13'2 3.9
2018-Jul-20 16:00N 71°07' E 023°15'2 3.8
2018-Jul-20 15:29N 71°08' E 023°20'0 0.5
2018-Jul-20 15:00N 71°09' E 023°19'2 3.9
2018-Jul-20 14:30N 71°07' E 023°16'2 3.9
2018-Jul-20 14:00N 71°05' E 023°13'2 3.2
2018-Jul-20 13:30N 71°05' E 023°17'2 4.2
2018-Jul-20 12:59N 71°07' E 023°18'2 4.1
2018-Jul-20 12:30N 71°09' E 023°20'2 3.1
2018-Jul-20 12:00N 71°08' E 023°16'2 3.9
2018-Jul-20 11:30N 71°06' E 023°13'2 3.7
2018-Jul-20 10:59N 71°04' E 023°11'4 7.5
2018-Jul-20 10:30N 71°03' E 023°01'3 6.7
2018-Jul-20 10:00N 71°02' E 022°51'2 3.8
2018-Jul-20 09:29N 71°00' E 022°47'2 4.1
2018-Jul-20 09:00N 71°01' E 022°41'2 4.1
2018-Jul-20 08:28N 71°00' E 022°34'2 4.3
2018-Jul-20 08:00N 70°59' E 022°29'2 4.1
2018-Jul-20 07:30N 70°58' E 022°23'2 4.1
2018-Jul-20 07:00N 70°57' E 022°18'2 4.5
2018-Jul-20 06:30N 70°56' E 022°13'2 3.6
2018-Jul-20 06:00N 70°54' E 022°12'2 4.4
2018-Jul-20 05:30N 70°52' E 022°10'2 3.2
2018-Jul-20 05:00N 70°50' E 022°09'2 3.8
2018-Jul-20 04:30N 70°52' E 022°10'2 3.6
2018-Jul-20 04:00N 70°54' E 022°12'2 4.5
2018-Jul-20 03:30N 70°56' E 022°09'0 0.5
2018-Jul-20 03:00N 70°56' E 022°08'2 3.2
2018-Jul-20 02:30N 70°54' E 022°11'2 3.0
2018-Jul-20 02:00N 70°53' E 022°14'1 2.0
2018-Jul-20 01:30N 70°54' E 022°15'2 3.6
2018-Jul-20 01:00N 70°53' E 022°11'2 4.2
2018-Jul-20 00:30N 70°51' E 022°08'2 3.9
2018-Jul-20 00:00N 70°49' E 022°05'4 8.6
2018-Jul-19 23:30N 70°48' E 021°53'612.4
2018-Jul-19 23:00N 70°43' E 021°39'612.4
2018-Jul-19 22:30N 70°39' E 021°26'612.4
2018-Jul-19 22:00N 70°34' E 021°14'612.3
2018-Jul-19 21:30N 70°30' E 021°02'612.2
2018-Jul-19 21:00N 70°25' E 020°50'612.0
2018-Jul-19 20:29N 70°20' E 020°39'612.3
2018-Jul-19 19:59N 70°15' E 020°29'612.9
2018-Jul-19 19:30N 70°10' E 020°19'612.5
2018-Jul-19 19:00N 70°04' E 020°11'612.3
2018-Jul-19 18:30N 69°59' E 020°01'612.2
2018-Jul-19 18:00N 69°54' E 019°52'612.1
2018-Jul-19 17:30N 69°50' E 019°39'612.0
2018-Jul-19 17:00N 69°48' E 019°22'613.0
2018-Jul-19 16:30N 69°45' E 019°05'510.3
2018-Jul-19 15:59N 69°40' E 018°59'0 0.4
2018-Jul-19 15:30N 69°40' E 018°59'0 0.0
2018-Jul-19 15:00N 69°40' E 018°59'0 0.0
2018-Jul-19 14:29N 69°40' E 018°59'0 0.0
2018-Jul-19 13:30N 69°40' E 018°59'0 0.0
2018-Jul-19 12:59N 69°40' E 018°59'0 0.0
2018-Jul-19 12:30N 69°40' E 018°59'0 0.0
2018-Jul-19 11:59N 69°40' E 018°59'0 0.0
2018-Jul-19 11:30N 69°40' E 018°59'0 0.0
2018-Jul-19 11:00N 69°40' E 018°59'0 0.0
2018-Jul-19 10:30N 69°40' E 018°59'0 0.0
2018-Jul-19 09:59N 69°40' E 018°59'0 0.0
2018-Jul-19 09:29N 69°40' E 018°59'0 0.0
2018-Jul-19 08:59N 69°40' E 018°59'0 0.0
2018-Jul-19 08:28N 69°40' E 018°59'0 0.0
2018-Jul-19 08:00N 69°40' E 018°59'0 0.0
2018-Jul-19 07:30N 69°40' E 018°59'0 0.0
2018-Jul-19 07:00N 69°40' E 018°59'0 0.0
2018-Jul-19 06:30N 69°40' E 018°59'0 0.0
2018-Jul-19 06:00N 69°40' E 018°59'0 0.0
2018-Jul-19 05:30N 69°40' E 018°59'0 0.0
2018-Jul-19 05:00N 69°40' E 018°59'0 0.0
2018-Jul-19 04:30N 69°40' E 018°59'0 0.0
2018-Jul-19 04:00N 69°40' E 018°59'0 0.0
2018-Jul-19 03:30N 69°40' E 018°59'0 0.0
2018-Jul-19 03:00N 69°40' E 018°59'0 0.0
2018-Jul-19 02:30N 69°40' E 018°59'0 0.0
2018-Jul-19 02:00N 69°40' E 018°59'0 0.0
2018-Jul-19 01:30N 69°40' E 018°59'0 0.0
2018-Jul-19 01:00N 69°40' E 018°59'0 0.0
2018-Jul-19 00:30N 69°40' E 018°59'0 0.0
2018-Jul-19 00:00N 69°40' E 018°59'0 0.0
2018-Jul-18 23:30N 69°40' E 018°59'0 0.0
2018-Jul-18 22:59N 69°40' E 018°59'0 0.0
2018-Jul-18 22:30N 69°40' E 018°59'1 1.7
2018-Jul-18 22:00N 69°40' E 018°59'0 0.5
2018-Jul-18 21:29N 69°39' E 018°58'0 0.0
2018-Jul-18 21:00N 69°39' E 018°58'0 0.0
2018-Jul-18 20:30N 69°39' E 018°58'0 0.0
2018-Jul-18 20:00N 69°39' E 018°58'0 0.0
2018-Jul-18 19:30N 69°39' E 018°58'1 2.4
2018-Jul-18 19:00N 69°38' E 018°57'510.9
2018-Jul-18 18:30N 69°34' E 018°48'510.2
2018-Jul-18 18:00N 69°32' E 018°34'611.8
2018-Jul-18 17:30N 69°31' E 018°18'611.0
2018-Jul-18 17:00N 69°32' E 018°02'510.8
2018-Jul-18 16:29N 69°36' E 017°52'611.3
2018-Jul-18 16:00N 69°39' E 017°38'510.5
2018-Jul-18 15:30N 69°35' E 017°27'611.2
2018-Jul-18 15:00N 69°30' E 017°30'0 0.8
2018-Jul-18 14:30N 69°30' E 017°29'0 0.0
2018-Jul-18 13:30N 69°30' E 017°29'0 0.0
2018-Jul-18 13:00N 69°30' E 017°29'0 0.0
2018-Jul-18 12:30N 69°30' E 017°29'0 0.0
2018-Jul-18 12:00N 69°30' E 017°29'0 0.0
2018-Jul-18 11:30N 69°30' E 017°29'0 0.0
2018-Jul-18 10:30N 69°30' E 017°29'0 0.0
2018-Jul-18 10:00N 69°30' E 017°29'0 0.0
2018-Jul-18 09:30N 69°30' E 017°29'0 0.0
2018-Jul-18 08:59N 69°30' E 017°29'0 0.0
2018-Jul-18 08:30N 69°30' E 017°29'0 0.0
2018-Jul-18 08:00N 69°30' E 017°29'0 0.0
2018-Jul-18 07:30N 69°30' E 017°29'0 0.0
2018-Jul-18 06:59N 69°30' E 017°29'0 0.0
2018-Jul-18 06:30N 69°30' E 017°29'0 0.0
2018-Jul-18 06:00N 69°30' E 017°29'0 0.0
2018-Jul-18 05:29N 69°30' E 017°29'0 0.0
2018-Jul-18 05:00N 69°30' E 017°29'0 0.0
2018-Jul-18 04:30N 69°30' E 017°29'0 0.0
2018-Jul-18 03:59N 69°30' E 017°29'0 0.0
2018-Jul-18 03:30N 69°30' E 017°29'0 0.0
2018-Jul-18 03:00N 69°30' E 017°29'0 0.0
2018-Jul-18 02:30N 69°30' E 017°29'0 0.0
2018-Jul-18 02:00N 69°30' E 017°29'0 0.8
2018-Jul-18 01:28N 69°30' E 017°30'3 5.3
2018-Jul-18 01:00N 69°32' E 017°27'4 7.3
2018-Jul-18 00:30N 69°35' E 017°20'1 2.1
2018-Jul-18 00:00N 69°36' E 017°22'1 2.6
2018-Jul-17 23:30N 69°37' E 017°24'1 2.5
2018-Jul-17 23:00N 69°38' E 017°26'1 2.0
2018-Jul-17 22:29N 69°39' E 017°27'2 3.4
2018-Jul-17 21:59N 69°40' E 017°30'612.0
2018-Jul-17 21:30N 69°45' E 017°40'612.4
2018-Jul-17 21:00N 69°50' E 017°49'611.9
2018-Jul-17 20:30N 69°55' E 017°56'612.4
2018-Jul-17 20:00N 70°01' E 018°06'612.7
2018-Jul-17 19:30N 70°06' E 018°16'612.5
2018-Jul-17 19:00N 70°11' E 018°27'611.8
2018-Jul-17 18:30N 70°16' E 018°38'611.2
2018-Jul-17 18:00N 70°18' E 018°53'611.9
2018-Jul-17 17:30N 70°21' E 019°08'611.3
2018-Jul-17 17:00N 70°24' E 019°24'510.8
2018-Jul-17 16:30N 70°26' E 019°38'610.8
2018-Jul-17 15:57N 70°29' E 019°53'510.9
2018-Jul-17 15:29N 70°32' E 020°06'510.7
2018-Jul-17 15:00N 70°34' E 020°20'510.5
2018-Jul-17 14:29N 70°37' E 020°33'510.8
2018-Jul-17 13:59N 70°39' E 020°48'612.0
2018-Jul-17 13:30N 70°41' E 021°05'612.6
2018-Jul-17 13:00N 70°42' E 021°24'612.7
2018-Jul-17 12:30N 70°45' E 021°41'612.7
2018-Jul-17 12:00N 70°48' E 021°58'612.5
2018-Jul-17 11:30N 70°51' E 022°15'612.9
2018-Jul-17 11:00N 70°54' E 022°33'713.7
2018-Jul-17 10:30N 70°56' E 022°52'713.3
2018-Jul-17 10:00N 70°59' E 023°11'612.7
2018-Jul-17 09:30N 71°02' E 023°28'612.5
2018-Jul-17 09:00N 71°05' E 023°45'612.5
2018-Jul-17 08:30N 71°08' E 024°03'611.7
2018-Jul-17 08:00N 71°08' E 024°21'611.9
2018-Jul-17 07:29N 71°09' E 024°39'4 8.6
2018-Jul-17 07:01N 71°10' E 024°52'610.9
2018-Jul-17 06:28N 71°11' E 025°10'510.9
2018-Jul-17 06:00N 71°11' E 025°26'510.2
2018-Jul-17 05:30N 71°12' E 025°41'510.4
2018-Jul-17 05:01N 71°12' E 025°57'611.6
2018-Jul-17 04:30N 71°11' E 026°15'612.1
2018-Jul-17 04:00N 71°10' E 026°34'611.9
2018-Jul-17 03:30N 71°10' E 026°52'611.7
2018-Jul-17 03:00N 71°10' E 027°11'611.5
2018-Jul-17 02:30N 71°09' E 027°28'611.8
2018-Jul-17 02:00N 71°09' E 027°47'612.0
2018-Jul-17 01:30N 71°08' E 028°05'611.8
2018-Jul-17 01:00N 71°06' E 028°22'612.3
2018-Jul-17 00:29N 71°02' E 028°39'1110.9
2018-Jul-16 23:29N 70°57' E 029°07'612.5
2018-Jul-16 23:00N 70°54' E 029°24'612.3
2018-Jul-16 22:29N 70°50' E 029°40'611.9
2018-Jul-16 22:00N 70°47' E 029°55'611.3
2018-Jul-16 21:30N 70°44' E 030°09'5 9.1
2018-Jul-16 21:00N 70°42' E 030°21'612.2
2018-Jul-16 20:30N 70°39' E 030°37'612.0
2018-Jul-16 20:01N 70°36' E 030°52'611.6
2018-Jul-16 19:30N 70°32' E 031°07'611.3
2018-Jul-16 19:00N 70°30' E 031°21'510.4
2018-Jul-16 18:30N 70°28' E 031°36'4 0.1
2018-Jul-14 22:52N 70°26' E 031°45'412.4
2018-Jul-14 22:30N 70°27' E 031°33'612.2
2018-Jul-14 22:00N 70°30' E 031°16'1 2.6
2018-Jul-14 21:30N 70°31' E 031°14'2 3.9
2018-Jul-14 21:00N 70°32' E 031°10'2 4.0
2018-Jul-14 20:30N 70°34' E 031°08'2 3.8
2018-Jul-14 20:00N 70°34' E 031°02'2 3.9
2018-Jul-14 19:30N 70°33' E 031°07'2 4.0
2018-Jul-14 19:00N 70°32' E 031°12'2 3.8
2018-Jul-14 18:30N 70°31' E 031°15'2 3.7
2018-Jul-14 18:00N 70°29' E 031°19'1 2.8
2018-Jul-14 17:30N 70°30' E 031°16'2 3.6
2018-Jul-14 17:00N 70°31' E 031°12'2 4.6
2018-Jul-14 16:29N 70°33' E 031°06'2 4.7
2018-Jul-14 16:00N 70°34' E 031°01'2 4.5
2018-Jul-14 15:30N 70°36' E 030°57'2 4.2
2018-Jul-14 15:00N 70°38' E 030°53'2 4.4
2018-Jul-14 14:30N 70°39' E 030°47'4 4.4
2018-Jul-14 13:30N 70°41' E 030°37'2 4.7
2018-Jul-14 13:00N 70°43' E 030°32'3 5.1
2018-Jul-14 12:30N 70°41' E 030°37'3 6.5
2018-Jul-14 12:00N 70°39' E 030°45'2 4.1
2018-Jul-14 11:30N 70°38' E 030°50'2 4.2
2018-Jul-14 11:00N 70°37' E 030°55'2 4.3
2018-Jul-14 10:29N 70°36' E 031°02'2 4.2
2018-Jul-14 10:00N 70°35' E 031°07'2 4.1
2018-Jul-14 09:30N 70°33' E 031°09'2 4.1
2018-Jul-14 09:00N 70°31' E 031°12'3 4.7
2018-Jul-14 08:29N 70°30' E 031°17'2 3.6
2018-Jul-14 08:00N 70°31' E 031°13'2 4.3
2018-Jul-14 07:30N 70°32' E 031°09'1 1.3
2018-Jul-14 06:59N 70°33' E 031°07'2 3.1
2018-Jul-14 06:30N 70°31' E 031°10'2 4.4
2018-Jul-14 06:00N 70°30' E 031°15'1 2.8
2018-Jul-14 05:30N 70°29' E 031°18'0 0.6
2018-Jul-14 05:00N 70°29' E 031°18'1 1.8
2018-Jul-14 04:30N 70°29' E 031°20'0 0.5
2018-Jul-14 04:00N 70°29' E 031°19'0 1.0
2018-Jul-14 03:30N 70°29' E 031°18'0 0.9
2018-Jul-14 03:00N 70°29' E 031°17'0 0.7
2018-Jul-14 02:30N 70°30' E 031°17'0 0.6
2018-Jul-14 02:00N 70°30' E 031°16'1 1.1
2018-Jul-14 01:30N 70°30' E 031°17'1 1.6
2018-Jul-14 01:00N 70°29' E 031°19'1 2.8
2018-Jul-14 00:30N 70°30' E 031°16'2 3.9
2018-Jul-14 00:00N 70°32' E 031°12'2 3.9
2018-Jul-13 23:30N 70°33' E 031°08'2 3.8
2018-Jul-13 23:00N 70°34' E 031°04'2 3.6
2018-Jul-13 22:30N 70°35' E 030°60'2 3.7
2018-Jul-13 22:00N 70°37' E 030°56'2 3.0
2018-Jul-13 21:29N 70°37' E 030°51'2 4.1
2018-Jul-13 21:00N 70°36' E 030°56'2 4.2
2018-Jul-13 20:30N 70°35' E 031°00'2 4.4
2018-Jul-13 19:59N 70°33' E 031°05'2 4.2
2018-Jul-13 19:31N 70°32' E 031°10'2 4.1
2018-Jul-13 19:00N 70°30' E 031°14'1 2.9
2018-Jul-13 18:30N 70°29' E 031°18'2 3.7
2018-Jul-13 17:59N 70°31' E 031°14'2 4.0
2018-Jul-13 17:30N 70°32' E 031°10'2 4.5
2018-Jul-13 17:00N 70°34' E 031°05'2 4.4
2018-Jul-13 16:30N 70°35' E 030°60'2 4.4
2018-Jul-13 16:00N 70°36' E 030°55'2 4.5
2018-Jul-13 15:30N 70°38' E 030°50'2 4.5
2018-Jul-13 15:00N 70°39' E 030°44'4 4.3
2018-Jul-13 14:00N 70°42' E 030°35'3 5.1
2018-Jul-13 13:30N 70°44' E 030°28'611.5
2018-Jul-13 13:01N 70°44' E 030°11'510.9
2018-Jul-13 12:31N 70°42' E 029°55'610.8
2018-Jul-13 11:59N 70°38' E 029°45'0 0.8
2018-Jul-13 11:30N 70°38' E 029°43'0 0.0
2018-Jul-13 11:00N 70°38' E 029°43'0 0.0
2018-Jul-13 10:30N 70°38' E 029°43'0 0.0
2018-Jul-13 10:00N 70°38' E 029°43'0 0.0
2018-Jul-13 09:30N 70°38' E 029°43'0 0.0
2018-Jul-13 08:59N 70°38' E 029°43'0 0.0
2018-Jul-13 08:30N 70°38' E 029°43'0 0.0
2018-Jul-13 08:00N 70°38' E 029°43'0 0.0
2018-Jul-13 07:30N 70°38' E 029°43'0 0.0
2018-Jul-13 06:58N 70°38' E 029°43'0 0.0
2018-Jul-13 06:30N 70°38' E 029°43'0 0.0
2018-Jul-13 06:00N 70°38' E 029°43'0 0.0
2018-Jul-13 05:29N 70°38' E 029°43'0 0.0
2018-Jul-13 05:00N 70°38' E 029°43'0 0.0
2018-Jul-13 04:30N 70°38' E 029°43'0 0.0
2018-Jul-13 03:59N 70°38' E 029°43'0 0.0
2018-Jul-13 03:30N 70°38' E 029°43'0 0.0
2018-Jul-13 03:01N 70°38' E 029°43'1 2.4
2018-Jul-13 02:30N 70°38' E 029°46'2 4.8
2018-Jul-13 02:00N 70°40' E 029°51'3 4.9
2018-Jul-13 01:29N 70°43' E 029°51'4 7.6
2018-Jul-13 01:00N 70°46' E 029°47'5 9.3
2018-Jul-13 00:30N 70°50' E 029°37'3 6.2
2018-Jul-13 00:00N 70°52' E 029°31'4 8.1
2018-Jul-12 23:30N 70°55' E 029°22'5 9.3
2018-Jul-12 22:59N 70°58' E 029°12'4 8.3
2018-Jul-12 22:30N 71°02' E 029°05'4 7.5
2018-Jul-12 22:00N 71°04' E 028°57'3 7.2
2018-Jul-12 21:31N 71°07' E 028°50'2 3.1
2018-Jul-12 21:00N 71°07' E 028°55'2 4.3
2018-Jul-12 20:30N 71°06' E 029°01'1 2.4
2018-Jul-12 20:00N 71°07' E 029°02'2 3.7
2018-Jul-12 19:30N 71°08' E 028°57'2 3.7
2018-Jul-12 19:00N 71°08' E 028°51'2 3.7
2018-Jul-12 18:30N 71°08' E 028°46'2 3.7
2018-Jul-12 18:00N 71°08' E 028°40'2 3.6
2018-Jul-12 17:30N 71°09' E 028°35'2 4.3
2018-Jul-12 17:00N 71°10' E 028°30'2 3.2
2018-Jul-12 16:30N 71°09' E 028°34'2 3.6
2018-Jul-12 15:59N 71°08' E 028°39'2 4.1
2018-Jul-12 15:30N 71°08' E 028°45'2 3.9
2018-Jul-12 15:00N 71°07' E 028°51'2 3.8
2018-Jul-12 14:30N 71°07' E 028°56'2 3.6
2018-Jul-12 14:00N 71°07' E 029°02'1 2.1
2018-Jul-12 13:31N 71°06' E 029°03'2 4.4
2018-Jul-12 13:00N 71°07' E 028°56'2 4.4
2018-Jul-12 12:30N 71°07' E 028°50'2 4.2
2018-Jul-12 12:00N 71°08' E 028°44'2 4.2
2018-Jul-12 11:29N 71°09' E 028°37'2 4.4
2018-Jul-12 11:00N 71°09' E 028°31'4 7.2
2018-Jul-12 10:30N 71°09' E 028°42'2 3.5
2018-Jul-12 10:00N 71°08' E 028°46'2 4.1
2018-Jul-12 09:30N 71°07' E 028°52'2 4.2
2018-Jul-12 09:00N 71°07' E 028°59'1 2.4
2018-Jul-12 08:30N 71°06' E 029°01'2 3.5
2018-Jul-12 08:00N 71°06' E 028°56'2 3.4
2018-Jul-12 07:30N 71°05' E 028°51'2 3.3
2018-Jul-12 07:00N 71°05' E 028°46'2 3.3
2018-Jul-12 06:30N 71°07' E 028°42'2 3.3
2018-Jul-12 06:00N 71°08' E 028°40'2 4.1
2018-Jul-12 05:30N 71°08' E 028°46'2 4.1
2018-Jul-12 05:00N 71°08' E 028°52'2 4.3
2018-Jul-12 04:30N 71°07' E 028°58'2 4.0
2018-Jul-12 04:00N 71°06' E 029°04'2 4.1
2018-Jul-12 03:30N 71°04' E 029°09'1 3.0
2018-Jul-12 03:00N 71°04' E 029°12'2 4.0
2018-Jul-12 02:29N 71°05' E 029°07'1 2.9
2018-Jul-12 02:01N 71°06' E 029°09'2 3.9
2018-Jul-12 01:29N 71°06' E 029°03'2 4.2
2018-Jul-12 01:00N 71°07' E 028°57'2 4.4
2018-Jul-12 00:29N 71°08' E 028°51'2 3.9
2018-Jul-12 00:00N 71°08' E 028°45'2 3.4
2018-Jul-11 23:30N 71°06' E 028°47'2 3.8
2018-Jul-11 23:00N 71°06' E 028°52'2 3.7
2018-Jul-11 22:30N 71°06' E 028°58'1 2.9
2018-Jul-11 22:00N 71°07' E 028°57'2 4.2
2018-Jul-11 21:29N 71°08' E 028°51'2 4.0
2018-Jul-11 21:00N 71°08' E 028°45'2 4.1
2018-Jul-11 20:30N 71°09' E 028°38'1 1.2
2018-Jul-11 20:00N 71°09' E 028°37'0 0.6
2018-Jul-11 19:30N 71°09' E 028°37'4 7.3
2018-Jul-11 19:00N 71°09' E 028°48'2 3.4
2018-Jul-11 18:30N 71°08' E 028°53'2 4.4
2018-Jul-11 18:00N 71°06' E 028°56'2 3.9
2018-Jul-11 17:30N 71°05' E 029°02'  

Dump ship's entire track history